Time;durP1;ratioP1;P1;durP2;ratioP2;P2;SDS_P1;SDS_P2;PMS_P1;PMS_P2;Temp;Humidity;BMP_temperature;BMP_pressure;BME280_temperature;BME280_humidity;BME280_pressure;Samples;Min_cycle;Max_cycle;Signal;HPM_P1;HPM_P2
2023/04/06 00:00:59;;;;;;;11.13;3.72;;;3.10;68.10;;;;;;4965286;28;93924;-72
2023/04/06 00:03:25;;;;;;;7.15;3.72;;;3.10;68.10;;;;;;4969678;28;94319;-70
2023/04/06 00:05:51;;;;;;;11.48;3.92;;;3.10;68.30;;;;;;4972900;28;94077;-69
2023/04/06 00:08:17;;;;;;;7.30;3.47;;;3.10;68.90;;;;;;4969001;28;94924;-69
2023/04/06 00:10:43;;;;;;;8.82;3.35;;;3.00;68.10;;;;;;4969083;28;94244;-71
2023/04/06 00:13:09;;;;;;;8.57;3.63;;;3.10;68.20;;;;;;4969891;28;93054;-69
2023/04/06 00:15:35;;;;;;;7.75;3.80;;;3.00;68.30;;;;;;4972870;28;92647;-70
2023/04/06 00:18:02;;;;;;;11.00;3.80;;;3.00;68.90;;;;;;4971291;28;92551;-71
2023/04/06 00:20:27;;;;;;;8.93;3.33;;;3.00;68.60;;;;;;4969493;28;93287;-71
2023/04/06 00:22:54;;;;;;;9.25;3.67;;;3.00;69.10;;;;;;4970472;28;93050;-71
2023/04/06 00:25:20;;;;;;;7.03;3.53;;;3.00;68.80;;;;;;4969438;28;93425;-71
2023/04/06 00:27:45;;;;;;;8.82;3.60;;;2.90;68.90;;;;;;4965034;28;93687;-70
2023/04/06 00:30:11;;;;;;;7.38;3.60;;;2.90;69.00;;;;;;4972319;28;92452;-71
2023/04/06 00:32:37;;;;;;;7.65;3.17;;;2.90;69.90;;;;;;4965595;28;92685;-72
2023/04/06 00:35:04;;;;;;;9.68;3.85;;;2.80;69.70;;;;;;4975287;28;92799;-71
2023/04/06 00:37:30;;;;;;;9.95;3.67;;;2.80;69.60;;;;;;4967164;28;92963;-71
2023/04/06 00:39:55;;;;;;;9.40;3.55;;;2.80;69.90;;;;;;4970798;28;92487;-71
2023/04/06 00:42:25;;;;;;;8.30;3.58;;;2.80;70.00;;;;;;4965195;28;93110;-71
2023/04/06 00:44:59;;;;;;;8.43;3.40;;;2.80;70.10;;;;;;4970056;28;92947;-71
2023/04/06 00:47:25;;;;;;;8.27;3.38;;;2.70;70.00;;;;;;4964592;28;92708;-71
2023/04/06 00:49:58;;;;;;;13.77;3.70;;;2.80;70.20;;;;;;4994439;28;80677;-70
2023/04/06 00:52:23;;;;;;;10.07;3.72;;;2.70;70.20;;;;;;4994262;28;81107;-71
2023/04/06 00:54:50;;;;;;;10.93;4.13;;;2.70;70.40;;;;;;4995960;28;80641;-71
2023/04/06 00:57:17;;;;;;;11.27;3.90;;;2.70;70.30;;;;;;4992514;28;81935;-71
2023/04/06 00:59:43;;;;;;;15.85;4.40;;;2.70;70.20;;;;;;4986167;28;82554;-72
2023/04/06 01:02:09;;;;;;;10.82;4.10;;;2.70;70.20;;;;;;4994768;28;81812;-71
2023/04/06 01:04:35;;;;;;;8.70;3.60;;;2.80;70.10;;;;;;4987520;28;80975;-72
2023/04/06 01:07:01;;;;;;;9.50;3.70;;;2.70;69.90;;;;;;4990174;28;80640;-71
2023/04/06 01:09:30;;;;;;;14.15;4.07;;;2.70;70.20;;;;;;4995245;28;81795;-70
2023/04/06 01:11:57;;;;;;;6.82;3.53;;;2.70;70.20;;;;;;4992425;28;81189;-70
2023/04/06 01:14:24;;;;;;;8.13;3.45;;;2.70;69.80;;;;;;4988300;28;80667;-71
2023/04/06 01:16:51;;;;;;;8.45;4.20;;;2.80;69.70;;;;;;4987842;28;80551;-71
2023/04/06 01:19:17;;;;;;;8.05;3.55;;;2.70;69.70;;;;;;4990157;28;81797;-71
2023/04/06 01:21:43;;;;;;;6.47;3.03;;;2.80;69.00;;;;;;4988636;28;81347;-71
2023/04/06 01:24:09;;;;;;;9.63;3.28;;;2.70;69.00;;;;;;4988075;28;81342;-71
2023/04/06 01:26:36;;;;;;;7.30;2.97;;;2.70;68.80;;;;;;4994298;28;81323;-70
2023/04/06 01:29:03;;;;;;;10.07;3.05;;;2.70;69.10;;;;;;4987399;28;81735;-71
2023/04/06 01:31:29;;;;;;;11.00;3.40;;;2.70;68.90;;;;;;4991558;28;81304;-71
2023/04/06 01:33:55;;;;;;;11.00;3.33;;;2.70;69.00;;;;;;4993798;28;80992;-71
2023/04/06 01:36:21;;;;;;;9.52;3.28;;;2.70;69.30;;;;;;4992176;28;81456;-71
2023/04/06 01:38:47;;;;;;;9.65;3.60;;;2.70;69.50;;;;;;4991097;28;82022;-71
2023/04/06 01:41:12;;;;;;;8.32;3.20;;;2.70;69.40;;;;;;4989859;28;82415;-71
2023/04/06 01:43:38;;;;;;;8.02;3.28;;;2.70;69.40;;;;;;4994383;28;81555;-71
2023/04/06 01:46:04;;;;;;;11.10;3.63;;;2.80;69.30;;;;;;4985984;28;80983;-71
2023/04/06 01:48:30;;;;;;;6.28;3.05;;;2.80;68.80;;;;;;4998052;28;83649;-71
2023/04/06 01:50:56;;;;;;;6.10;2.35;;;2.90;68.80;;;;;;4988214;28;81514;-72
2023/04/06 01:53:22;;;;;;;9.45;3.15;;;2.90;67.40;;;;;;4991782;28;80950;-71
2023/04/06 01:55:47;;;;;;;7.25;2.53;;;3.10;67.10;;;;;;4991096;28;81721;-70
2023/04/06 01:58:13;;;;;;;9.20;2.90;;;3.20;65.50;;;;;;4989428;28;80908;-71
2023/04/06 02:00:39;;;;;;;9.38;2.50;;;3.40;64.10;;;;;;4989191;28;82051;-70
2023/04/06 02:03:05;;;;;;;6.97;2.47;;;3.60;63.50;;;;;;4977593;28;80829;-71
2023/04/06 02:05:37;;;;;;;7.55;2.70;;;3.60;63.70;;;;;;4975978;28;80755;-71
2023/04/06 02:08:05;;;;;;;5.72;2.53;;;3.70;63.60;;;;;;4976251;28;80874;-71
2023/04/06 02:10:31;;;;;;;7.03;2.40;;;3.80;63.20;;;;;;4977599;28;82818;-71
2023/04/06 02:12:57;;;;;;;9.20;3.67;;;3.90;63.30;;;;;;4975860;28;82426;-70
2023/04/06 02:15:23;;;;;;;8.55;3.40;;;3.80;65.20;;;;;;4973001;28;82408;-71
2023/04/06 02:17:48;;;;;;;7.93;3.42;;;3.80;65.30;;;;;;4977085;28;81510;-71
2023/04/06 02:20:14;;;;;;;10.60;3.70;;;3.70;65.50;;;;;;4977616;28;81053;-70
2023/04/06 02:22:40;;;;;;;10.23;3.70;;;3.70;65.40;;;;;;4983771;28;80488;-71
2023/04/06 02:25:06;;;;;;;7.68;2.78;;;3.60;65.70;;;;;;4975523;28;80757;-71
2023/04/06 02:27:32;;;;;;;8.57;3.35;;;3.60;65.90;;;;;;4974830;28;81446;-71
2023/04/06 02:29:58;;;;;;;7.68;2.83;;;3.50;65.50;;;;;;4977156;28;80974;-71
2023/04/06 02:32:24;;;;;;;7.43;2.70;;;3.40;65.80;;;;;;4977430;28;81666;-71
2023/04/06 02:34:50;;;;;;;7.75;3.00;;;3.40;65.60;;;;;;4979509;28;80959;-71
2023/04/06 02:37:15;;;;;;;8.60;3.15;;;3.30;66.10;;;;;;4979249;28;81303;-71
2023/04/06 02:39:41;;;;;;;6.88;2.95;;;3.30;66.60;;;;;;4977334;28;81181;-69
2023/04/06 02:42:08;;;;;;;8.10;3.15;;;3.20;66.40;;;;;;4975400;28;80689;-69
2023/04/06 02:44:34;;;;;;;6.63;3.10;;;3.20;66.80;;;;;;4973776;28;80885;-69
2023/04/06 02:47:00;;;;;;;7.72;2.90;;;3.10;66.40;;;;;;4976704;28;81902;-69
2023/04/06 02:49:26;;;;;;;6.30;2.58;;;3.00;66.60;;;;;;4974531;28;82312;-71
2023/04/06 02:51:51;;;;;;;8.70;2.72;;;3.10;66.50;;;;;;4973548;28;80768;-70
2023/04/06 02:54:17;;;;;;;6.28;2.70;;;3.00;66.00;;;;;;4966855;28;81937;-71
2023/04/06 02:56:43;;;;;;;7.20;2.75;;;3.00;66.40;;;;;;4976237;28;81309;-70
2023/04/06 02:59:09;;;;;;;6.15;2.47;;;2.90;67.00;;;;;;4974159;28;81409;-72
2023/04/06 03:01:35;;;;;;;7.35;2.88;;;2.90;67.10;;;;;;4972563;28;81664;-70
2023/04/06 03:04:01;;;;;;;9.77;3.00;;;2.80;67.50;;;;;;4976358;28;80504;-72
2023/04/06 03:06:27;;;;;;;6.63;3.00;;;2.80;67.60;;;;;;4973708;28;81581;-70
2023/04/06 03:08:53;;;;;;;9.25;2.70;;;2.70;67.50;;;;;;4972960;28;83119;-70
2023/04/06 03:11:19;;;;;;;6.32;2.55;;;2.70;67.50;;;;;;4972524;28;80681;-71
2023/04/06 03:13:45;;;;;;;6.53;2.63;;;2.60;67.50;;;;;;4976141;28;80887;-70
2023/04/06 03:16:10;;;;;;;7.05;2.95;;;2.70;68.30;;;;;;4973013;28;82386;-70
2023/04/06 03:18:36;;;;;;;8.30;2.90;;;2.60;68.70;;;;;;4976423;28;81198;-70
2023/04/06 03:21:02;;;;;;;8.60;3.13;;;2.60;69.00;;;;;;4976797;28;80928;-71
2023/04/06 03:23:28;;;;;;;9.50;3.38;;;2.50;69.60;;;;;;4976757;28;80841;-68
2023/04/06 03:25:53;;;;;;;10.65;3.67;;;2.50;69.30;;;;;;4979781;28;81276;-70
2023/04/06 03:28:19;;;;;;;8.98;3.63;;;2.50;69.80;;;;;;4988813;28;81254;-71
2023/04/06 03:30:45;;;;;;;10.15;3.67;;;2.50;70.20;;;;;;4995619;28;80679;-70
2023/04/06 03:33:11;;;;;;;8.73;3.85;;;2.40;70.20;;;;;;4975469;28;82858;-70
2023/04/06 03:35:37;;;;;;;9.77;3.60;;;2.40;70.30;;;;;;4985333;28;81359;-71
2023/04/06 03:38:04;;;;;;;11.57;3.80;;;2.40;70.90;;;;;;4981636;28;82039;-69
2023/04/06 03:40:31;;;;;;;6.63;2.85;;;2.30;70.60;;;;;;4987601;28;80440;-70
2023/04/06 03:42:57;;;;;;;11.68;3.58;;;2.30;70.40;;;;;;4994583;28;80556;-69
2023/04/06 03:45:23;;;;;;;8.20;3.53;;;2.30;71.10;;;;;;4983313;28;81939;-69
2023/04/06 03:47:49;;;;;;;11.88;3.30;;;2.20;71.20;;;;;;4984806;28;82052;-69
2023/04/06 03:50:14;;;;;;;10.57;3.67;;;2.20;71.10;;;;;;4984363;28;80515;-71
2023/04/06 03:52:40;;;;;;;7.75;2.97;;;2.20;70.90;;;;;;4981753;28;81421;-69
2023/04/06 03:55:07;;;;;;;7.20;3.20;;;2.20;70.70;;;;;;4996167;28;81232;-69
2023/04/06 03:57:33;;;;;;;8.35;3.15;;;2.20;70.50;;;;;;4984983;28;80658;-70
2023/04/06 03:59:58;;;;;;;9.23;3.38;;;2.20;70.80;;;;;;4981920;28;81404;-69
2023/04/06 04:02:24;;;;;;;11.10;3.88;;;2.20;71.20;;;;;;4976964;28;80607;-69
2023/04/06 04:04:50;;;;;;;6.50;3.17;;;2.10;71.30;;;;;;4968944;28;82077;-71
2023/04/06 04:07:16;;;;;;;7.35;3.17;;;2.10;70.70;;;;;;4973955;28;80539;-68
2023/04/06 04:09:41;;;;;;;7.50;3.22;;;2.10;70.80;;;;;;4987630;28;81743;-69
2023/04/06 04:12:07;;;;;;;10.90;3.35;;;2.10;70.80;;;;;;4989055;28;80651;-69
2023/04/06 04:14:33;;;;;;;8.85;3.45;;;2.10;70.70;;;;;;4978719;28;80976;-69
2023/04/06 04:16:59;;;;;;;7.22;3.15;;;2.10;70.90;;;;;;4979888;28;81686;-69
2023/04/06 04:19:25;;;;;;;7.25;3.00;;;2.10;70.50;;;;;;4990638;28;81395;-69
2023/04/06 04:21:50;;;;;;;8.48;2.70;;;2.10;70.50;;;;;;4981109;28;80279;-69
2023/04/06 04:24:16;;;;;;;7.60;2.95;;;2.10;70.40;;;;;;4978213;28;80822;-69
2023/04/06 04:26:42;;;;;;;8.18;3.05;;;2.10;70.10;;;;;;4983885;28;81123;-70
2023/04/06 04:29:08;;;;;;;7.53;2.95;;;2.10;69.90;;;;;;4975628;28;81923;-71
2023/04/06 04:31:33;;;;;;;8.50;3.17;;;2.10;70.10;;;;;;4967428;28;80442;-70
2023/04/06 04:34:00;;;;;;;8.45;3.13;;;2.10;70.50;;;;;;4977057;28;80881;-70
2023/04/06 04:36:26;;;;;;;7.95;2.97;;;2.10;70.10;;;;;;4964997;28;81808;-71
2023/04/06 04:38:52;;;;;;;10.57;3.22;;;2.10;70.00;;;;;;4969467;28;82152;-69
2023/04/06 04:41:18;;;;;;;7.85;2.60;;;2.10;69.80;;;;;;4958407;28;82271;-69
2023/04/06 04:43:44;;;;;;;8.98;3.40;;;2.10;69.90;;;;;;4965702;28;81256;-71
2023/04/06 04:46:10;;;;;;;5.97;2.78;;;2.10;70.10;;;;;;4971924;28;81438;-70
2023/04/06 04:48:36;;;;;;;9.45;3.15;;;2.10;70.10;;;;;;4965168;28;82594;-69
2023/04/06 04:51:02;;;;;;;7.13;2.85;;;2.10;70.30;;;;;;4974238;28;82275;-71
2023/04/06 04:53:28;;;;;;;8.88;2.95;;;2.10;70.80;;;;;;4964458;28;84450;-71
2023/04/06 04:55:53;;;;;;;9.77;3.05;;;2.10;70.20;;;;;;4963438;28;82224;-70
2023/04/06 04:58:19;;;;;;;9.70;3.30;;;2.10;70.50;;;;;;4961880;28;82524;-71
2023/04/06 05:00:48;;;;;;;9.48;3.13;;;2.10;70.60;;;;;;4964217;28;82364;-71
2023/04/06 05:03:22;;;;;;;6.43;2.58;;;2.10;70.20;;;;;;4966480;28;83381;-71
2023/04/06 05:05:48;;;;;;;7.80;2.90;;;2.10;69.70;;;;;;4966650;28;83876;-71
2023/04/06 05:08:13;;;;;;;8.07;3.30;;;2.20;69.30;;;;;;4963519;28;83012;-70
2023/04/06 05:10:39;;;;;;;7.60;2.97;;;2.30;68.80;;;;;;4971289;28;82038;-71
2023/04/06 05:13:05;;;;;;;7.97;2.67;;;2.50;68.00;;;;;;4966180;28;82240;-71
2023/04/06 05:15:31;;;;;;;11.23;2.70;;;2.60;67.70;;;;;;4963670;28;83511;-72
2023/04/06 05:17:57;;;;;;;8.45;2.67;;;2.70;67.20;;;;;;4952981;28;84231;-71
2023/04/06 05:20:23;;;;;;;6.55;2.78;;;3.00;67.00;;;;;;4966201;28;81917;-69
2023/04/06 05:22:48;;;;;;;10.13;3.65;;;3.50;66.50;;;;;;4966674;28;83083;-70
2023/04/06 05:25:14;;;;;;;8.57;4.13;;;4.20;64.70;;;;;;4966259;28;82506;-70
2023/04/06 05:27:40;;;;;;;21.17;5.30;;;5.00;62.90;;;;;;4966060;28;84466;-71
2023/04/06 05:30:07;;;;;;;21.33;5.05;;;5.60;61.30;;;;;;4960768;28;84431;-70
2023/04/06 05:32:33;;;;;;;10.93;5.40;;;6.40;60.80;;;;;;4966509;28;82734;-68
2023/04/06 05:34:59;;;;;;;13.68;5.05;;;7.20;58.60;;;;;;4967079;28;82895;-70
2023/04/06 05:37:24;;;;;;;9.68;4.63;;;7.80;57.00;;;;;;4973015;28;82624;-70
2023/04/06 05:39:50;;;;;;;14.77;6.18;;;8.70;55.00;;;;;;4973632;28;82220;-69
2023/04/06 05:42:16;;;;;;;8.48;3.70;;;9.30;53.50;;;;;;4970908;28;83591;-71
2023/04/06 05:44:42;;;;;;;10.77;4.55;;;9.90;49.40;;;;;;4974391;28;82317;-71
2023/04/06 05:47:08;;;;;;;9.02;5.40;;;10.40;50.00;;;;;;4971839;28;82512;-72
2023/04/06 05:49:34;;;;;;;11.13;4.50;;;10.70;49.20;;;;;;4967816;28;84379;-71
2023/04/06 05:52:00;;;;;;;9.43;3.53;;;11.40;48.10;;;;;;4969117;28;84193;-71
2023/04/06 05:54:26;;;;;;;11.07;3.53;;;11.90;46.30;;;;;;4970889;28;83522;-72
2023/04/06 05:56:52;;;;;;;7.30;3.45;;;12.10;45.00;;;;;;4975666;28;82509;-69
2023/04/06 05:59:17;;;;;;;9.88;3.97;;;12.80;44.40;;;;;;4975941;28;81986;-72
2023/04/06 06:01:43;;;;;;;8.93;4.30;;;13.30;42.70;;;;;;4966854;28;82873;-72
2023/04/06 06:04:09;;;;;;;18.88;5.43;;;13.50;43.50;;;;;;4978266;28;83214;-71
2023/04/06 06:06:35;;;;;;;13.15;4.93;;;14.60;42.30;;;;;;4978145;28;82344;-72
2023/04/06 06:09:03;;;;;;;11.13;4.60;;;15.40;40.00;;;;;;4982175;28;82444;-71
2023/04/06 06:11:29;;;;;;;11.73;5.30;;;16.10;39.20;;;;;;4990393;28;84901;-71
2023/04/06 06:13:55;;;;;;;9.38;4.53;;;16.30;38.90;;;;;;4989514;28;82380;-70
2023/04/06 06:16:21;;;;;;;10.18;5.80;;;16.00;39.10;;;;;;4981858;28;83453;-71
2023/04/06 06:18:46;;;;;;;8.68;4.72;;;16.00;38.60;;;;;;4981516;28;82514;-71
2023/04/06 06:21:12;;;;;;;12.70;4.22;;;16.40;38.90;;;;;;4969780;28;82652;-71
2023/04/06 06:23:39;;;;;;;10.18;4.97;;;17.50;38.20;;;;;;4980619;28;83031;-70
2023/04/06 06:26:05;;;;;;;7.90;5.13;;;18.00;37.30;;;;;;4982028;28;82307;-71
2023/04/06 06:28:31;;;;;;;10.43;4.65;;;18.30;36.00;;;;;;4983145;28;82376;-71
2023/04/06 06:30:57;;;;;;;9.95;5.07;;;18.50;36.70;;;;;;5001557;28;82571;-70
2023/04/06 06:33:22;;;;;;;7.20;4.60;;;19.00;37.10;;;;;;4979640;28;82110;-70
2023/04/06 06:35:48;;;;;;;11.05;5.15;;;19.90;35.70;;;;;;4981612;28;82362;-70
2023/04/06 06:38:14;;;;;;;12.63;5.85;;;19.90;35.60;;;;;;4984013;28;83077;-70
2023/04/06 06:40:41;;;;;;;8.43;5.70;;;20.70;35.10;;;;;;4978016;28;85678;-70
2023/04/06 06:43:06;;;;;;;11.95;4.93;;;21.60;33.70;;;;;;4969109;28;83203;-70
2023/04/06 06:45:32;;;;;;;7.80;5.22;;;22.40;32.70;;;;;;4977092;28;82241;-70
2023/04/06 06:47:58;;;;;;;8.85;5.82;;;22.90;32.00;;;;;;4976877;28;82598;-70
2023/04/06 06:50:24;;;;;;;7.75;4.38;;;23.40;30.70;;;;;;4993674;28;83260;-70
2023/04/06 06:52:50;;;;;;;7.53;5.05;;;23.10;31.00;;;;;;4980371;28;82834;-71
2023/04/06 06:55:16;;;;;;;8.98;5.47;;;23.80;31.60;;;;;;4980956;28;82120;-70
2023/04/06 06:57:42;;;;;;;11.10;5.20;;;24.20;31.40;;;;;;4980766;28;81676;-70
2023/04/06 07:00:09;;;;;;;7.95;4.72;;;23.60;29.80;;;;;;4968706;28;84293;-72
2023/04/06 07:02:35;;;;;;;6.97;4.88;;;24.00;32.60;;;;;;4973549;28;83397;-71
2023/04/06 07:05:02;;;;;;;7.82;5.20;;;24.90;31.20;;;;;;4979600;28;83186;-69
2023/04/06 07:07:28;;;;;;;6.57;4.47;;;25.20;31.50;;;;;;4981326;28;82423;-71
2023/04/06 07:09:53;;;;;;;9.98;5.35;;;25.10;31.60;;;;;;4967006;28;82976;-71
2023/04/06 07:12:19;;;;;;;8.52;5.22;;;25.30;31.80;;;;;;4965951;28;82382;-70
2023/04/06 07:14:45;;;;;;;8.60;4.72;;;25.70;31.50;;;;;;4965330;28;82849;-71
2023/04/06 07:17:11;;;;;;;6.70;5.28;;;25.90;30.20;;;;;;4969170;28;83395;-71
2023/04/06 07:19:36;;;;;;;6.68;4.45;;;25.80;30.20;;;;;;4979177;28;82617;-71
2023/04/06 07:22:03;;;;;;;6.43;5.43;;;26.80;30.50;;;;;;4980157;28;82254;-71
2023/04/06 07:24:29;;;;;;;7.88;5.03;;;27.60;29.80;;;;;;4987028;28;82428;-70
2023/04/06 07:26:56;;;;;;;6.95;5.30;;;28.00;29.50;;;;;;4969251;28;82639;-69
2023/04/06 07:29:22;;;;;;;7.70;4.63;;;28.20;29.50;;;;;;4971199;28;84178;-69
2023/04/06 07:31:49;;;;;;;8.20;4.82;;;28.30;28.50;;;;;;4971740;28;82845;-70
2023/04/06 07:34:15;;;;;;;8.60;5.10;;;28.50;28.60;;;;;;4969893;28;82740;-70
2023/04/06 07:36:41;;;;;;;7.15;4.82;;;28.80;28.30;;;;;;4980560;28;82359;-70
2023/04/06 07:39:07;;;;;;;9.90;4.65;;;29.10;28.50;;;;;;4980591;28;84032;-71
2023/04/06 07:41:33;;;;;;;8.00;4.88;;;29.40;27.90;;;;;;4983326;28;83332;-70
2023/04/06 07:43:59;;;;;;;6.50;4.95;;;29.80;28.20;;;;;;4968176;28;82067;-69
2023/04/06 07:46:25;;;;;;;9.05;5.25;;;29.30;28.10;;;;;;4968482;28;81670;-70
2023/04/06 07:48:51;;;;;;;6.30;5.38;;;29.00;27.30;;;;;;4974243;28;84921;-69
2023/04/06 07:51:17;;;;;;;8.07;4.75;;;28.40;29.00;;;;;;4963815;28;82824;-69
2023/04/06 07:53:44;;;;;;;7.43;5.35;;;29.30;28.10;;;;;;4972758;28;83187;-70
2023/04/06 07:56:10;;;;;;;6.65;5.05;;;29.70;27.00;;;;;;4979263;28;82619;-69
2023/04/06 07:58:36;;;;;;;7.70;5.00;;;29.70;27.20;;;;;;4969396;28;82781;-70
2023/04/06 08:01:02;;;;;;;6.35;4.88;;;30.30;27.90;;;;;;4987729;28;82692;-69
2023/04/06 08:03:27;;;;;;;8.25;5.47;;;30.70;27.80;;;;;;4982327;28;82452;-70
2023/04/06 08:05:53;;;;;;;6.80;4.95;;;31.30;27.70;;;;;;4979169;28;82280;-70
2023/04/06 08:08:21;;;;;;;12.13;5.88;;;31.90;27.30;;;;;;4983642;28;82370;-69
2023/04/06 08:10:47;;;;;;;6.32;5.15;;;32.20;27.30;;;;;;4997092;28;82961;-69
2023/04/06 08:13:13;;;;;;;4.97;4.25;;;31.70;26.50;;;;;;4978137;28;82182;-69
2023/04/06 08:15:38;;;;;;;6.45;5.18;;;31.60;26.60;;;;;;4980567;28;82528;-70
2023/04/06 08:18:05;;;;;;;9.40;4.70;;;31.40;27.30;;;;;;4996645;28;83606;-70
2023/04/06 08:20:30;;;;;;;8.30;5.15;;;31.90;26.40;;;;;;4979205;28;83224;-69
2023/04/06 08:22:56;;;;;;;7.60;4.70;;;32.70;26.70;;;;;;4975161;28;82060;-70
2023/04/06 08:25:22;;;;;;;6.68;5.47;;;33.00;26.60;;;;;;4985522;28;82319;-69
2023/04/06 08:27:48;;;;;;;6.00;5.15;;;33.00;26.50;;;;;;4981080;28;84727;-69
2023/04/06 08:30:15;;;;;;;8.10;5.38;;;33.40;26.80;;;;;;4992468;28;82900;-69
2023/04/06 08:32:41;;;;;;;6.05;4.95;;;32.70;26.70;;;;;;4979790;28;82404;-70
2023/04/06 08:35:08;;;;;;;8.18;7.38;;;33.50;27.00;;;;;;4977258;28;82688;-70
2023/04/06 08:37:33;;;;;;;5.63;4.88;;;33.90;26.00;;;;;;4981248;28;83084;-69
2023/04/06 08:39:59;;;;;;;7.57;4.80;;;34.10;26.20;;;;;;4963857;28;83822;-70
2023/04/06 08:42:28;;;;;;;7.13;5.55;;;34.00;26.70;;;;;;4966375;28;83217;-72
2023/04/06 08:44:55;;;;;;;7.15;4.88;;;34.30;26.20;;;;;;4971709;28;84023;-70
2023/04/06 08:47:21;;;;;;;7.40;5.70;;;34.20;25.50;;;;;;4962028;28;83142;-70
2023/04/06 08:49:47;;;;;;;8.18;4.60;;;34.10;26.10;;;;;;4975331;28;82842;-68
2023/04/06 08:52:15;;;;;;;10.43;6.22;;;33.90;26.20;;;;;;4976232;28;82539;-69
2023/04/06 08:54:40;;;;;;;9.80;6.07;;;34.40;26.10;;;;;;4979787;28;82337;-70
2023/04/06 08:57:07;;;;;;;8.23;5.65;;;35.40;25.30;;;;;;4964791;28;82884;-70
2023/04/06 08:59:36;;;;;;;5.97;5.03;;;35.90;25.60;;;;;;4978982;28;83440;-70
2023/04/06 09:02:05;;;;;;;9.77;6.00;;;35.40;25.00;;;;;;4977515;28;82451;-71
2023/04/06 09:04:33;;;;;;;7.22;5.68;;;35.70;25.80;;;;;;4968918;28;84214;-70
2023/04/06 09:06:59;;;;;;;6.30;5.22;;;35.90;25.50;;;;;;4959209;28;84403;-70
2023/04/06 09:09:25;;;;;;;6.65;5.57;;;35.60;25.70;;;;;;4957304;28;84206;-71
2023/04/06 09:11:52;;;;;;;15.20;6.07;;;35.80;25.00;;;;;;4964512;28;82817;-70
2023/04/06 09:14:34;;;;;;;6.78;5.78;;;35.00;25.60;;;;;;4964071;28;82739;-70
2023/04/06 09:17:01;;;;;;;7.97;5.47;;;34.90;25.20;;;;;;4966529;28;86552;-70
2023/04/06 09:19:27;;;;;;;7.65;6.25;;;35.20;26.20;;;;;;4971429;28;82910;-71
2023/04/06 09:22:04;;;;;;;6.78;5.90;;;35.60;26.30;;;;;;4970441;28;83817;-70
2023/04/06 09:24:40;;;;;;;7.22;5.95;;;36.30;25.60;;;;;;4968119;28;82910;-71
2023/04/06 09:27:06;;;;;;;10.35;7.00;;;36.30;24.90;;;;;;4973790;28;83045;-70
2023/04/06 09:29:31;;;;;;;7.22;5.80;;;36.60;25.20;;;;;;4966942;28;82989;-72
2023/04/06 09:32:07;;;;;;;8.13;5.57;;;36.10;25.20;;;;;;4979638;28;84664;-71
2023/04/06 09:34:38;;;;;;;6.45;5.07;;;36.30;24.80;;;;;;4980430;28;82302;-72
2023/04/06 09:37:18;;;;;;;10.38;5.13;;;36.50;25.00;;;;;;4966860;28;82874;-71
2023/04/06 09:39:44;;;;;;;7.65;5.93;;;36.10;25.10;;;;;;4967512;28;82635;-70
2023/04/06 09:42:23;;;;;;;8.38;4.55;;;36.30;25.70;;;;;;4969824;28;82670;-70
2023/04/06 09:44:49;;;;;;;6.28;5.63;;;36.60;26.30;;;;;;4969716;28;84194;-71
2023/04/06 09:47:16;;;;;;;10.88;6.65;;;36.50;26.10;;;;;;4967615;28;82594;-71
2023/04/06 09:49:44;;;;;;;8.00;6.57;;;36.90;25.60;;;;;;4962032;28;83013;-71
2023/04/06 09:52:12;;;;;;;7.10;6.30;;;36.70;26.20;;;;;;4963756;28;83974;-70
2023/04/06 09:54:38;;;;;;;8.35;5.60;;;36.10;24.90;;;;;;4972408;28;83933;-70
2023/04/06 09:57:03;;;;;;;7.25;5.88;;;35.00;25.30;;;;;;4967802;28;83637;-72
2023/04/06 09:59:55;;;;;;;6.22;5.30;;;34.30;25.60;;;;;;4963420;28;84578;-72
2023/04/06 10:02:41;;;;;;;7.80;6.18;;;34.40;26.70;;;;;;4964905;28;83978;-71
2023/04/06 10:05:26;;;;;;;7.00;5.50;;;34.70;26.30;;;;;;4968619;28;82817;-71
2023/04/06 10:07:56;;;;;;;7.63;5.93;;;34.90;26.40;;;;;;4965224;28;85005;-71
2023/04/06 10:10:22;;;;;;;8.55;5.28;;;34.90;26.50;;;;;;4965122;28;83026;-71
2023/04/06 10:12:49;;;;;;;6.40;5.32;;;34.80;25.80;;;;;;4973335;28;84401;-71
2023/04/06 10:15:14;;;;;;;6.88;5.50;;;34.10;26.30;;;;;;4971065;28;81612;-70
2023/04/06 10:17:40;;;;;;;9.18;5.75;;;33.50;26.50;;;;;;4980303;28;83527;-70
2023/04/06 10:20:31;;;;;;;7.10;4.97;;;32.40;27.30;;;;;;4969463;28;82425;-70
2023/04/06 10:23:05;;;;;;;7.00;5.15;;;31.00;27.60;;;;;;4966502;28;84762;-70
2023/04/06 10:25:32;;;;;;;6.07;4.75;;;29.00;28.30;;;;;;4969183;28;83821;-70
2023/04/06 10:28:05;;;;;;;6.43;4.78;;;27.00;31.20;;;;;;4964738;28;83812;-71
2023/04/06 10:30:32;;;;;;;6.65;4.40;;;25.50;31.70;;;;;;4963537;28;84168;-70
2023/04/06 10:32:57;;;;;;;7.40;4.97;;;24.20;32.60;;;;;;4975113;28;83422;-70
2023/04/06 10:35:24;;;;;;;7.63;4.22;;;23.20;32.80;;;;;;4968445;28;82955;-70
2023/04/06 10:37:53;;;;;;;7.53;5.35;;;22.10;35.60;;;;;;4964585;28;83015;-70
2023/04/06 10:40:24;;;;;;;7.07;4.15;;;21.30;35.10;;;;;;4970081;28;83779;-70
2023/04/06 10:42:51;;;;;;;10.48;4.68;;;20.40;36.20;;;;;;4967969;28;83462;-70
2023/04/06 10:45:22;;;;;;;8.02;5.20;;;19.90;37.10;;;;;;4968335;28;84596;-71
2023/04/06 10:47:48;;;;;;;6.60;4.40;;;19.30;38.80;;;;;;4961619;28;83917;-71
2023/04/06 10:50:17;;;;;;;6.47;3.70;;;19.10;37.30;;;;;;4961260;28;84265;-71
2023/04/06 10:52:45;;;;;;;5.97;3.53;;;18.90;38.80;;;;;;4972209;28;84476;-70
2023/04/06 10:55:15;;;;;;;4.70;3.13;;;18.60;37.60;;;;;;4966400;28;83508;-70
2023/04/06 10:57:41;;;;;;;8.07;3.95;;;18.20;36.40;;;;;;4966203;28;83533;-72
2023/04/06 11:00:08;;;;;;;6.78;3.58;;;18.00;36.10;;;;;;4969363;28;82720;-70
2023/04/06 11:02:40;;;;;;;6.07;3.33;;;17.80;35.50;;;;;;4959139;28;83697;-70
2023/04/06 11:05:06;;;;;;;6.50;3.47;;;17.80;38.00;;;;;;4974717;28;81398;-71
2023/04/06 11:07:32;;;;;;;7.60;3.63;;;17.50;37.50;;;;;;4971138;28;83105;-70
2023/04/06 11:09:58;;;;;;;7.40;3.90;;;17.30;34.40;;;;;;4972744;28;82388;-70
2023/04/06 11:12:26;;;;;;;8.40;3.35;;;17.20;35.90;;;;;;4972115;28;83586;-70
2023/04/06 11:15:05;;;;;;;7.68;2.60;;;17.10;34.30;;;;;;4968135;28;82460;-72
2023/04/06 11:17:35;;;;;;;6.88;2.67;;;17.20;38.60;;;;;;4959892;28;84294;-70
2023/04/06 11:20:02;;;;;;;8.20;2.60;;;17.00;33.80;;;;;;4958360;28;82842;-71
2023/04/06 11:22:28;;;;;;;7.25;3.33;;;16.70;33.80;;;;;;4951137;28;83511;-71
2023/04/06 11:25:06;;;;;;;5.38;2.17;;;16.50;34.80;;;;;;4964954;28;82481;-71
2023/04/06 11:27:33;;;;;;;9.50;2.78;;;16.60;40.10;;;;;;4959397;28;83797;-71
2023/04/06 11:30:00;;;;;;;6.47;2.95;;;16.60;37.90;;;;;;4958081;28;84209;-71
2023/04/06 11:32:26;;;;;;;4.10;2.05;;;16.50;36.30;;;;;;4960605;28;82671;-71
2023/04/06 11:34:52;;;;;;;5.55;2.60;;;16.30;36.20;;;;;;4965599;28;82828;-71
2023/04/06 11:37:17;;;;;;;5.90;2.22;;;16.20;39.00;;;;;;4965653;28;84526;-71
2023/04/06 11:39:51;;;;;;;6.25;2.53;;;16.30;39.10;;;;;;4964544;28;83416;-71
2023/04/06 11:42:27;;;;;;;6.60;2.30;;;16.30;36.10;;;;;;4960602;28;83074;-71
2023/04/06 11:44:58;;;;;;;4.32;2.10;;;16.40;39.10;;;;;;4961014;28;83812;-70
2023/04/06 11:47:30;;;;;;;5.28;1.92;;;16.50;38.10;;;;;;4959776;28;84037;-70
2023/04/06 11:50:12;;;;;;;4.07;2.03;;;16.50;37.00;;;;;;4964573;28;82971;-71
2023/04/06 11:52:39;;;;;;;4.93;2.05;;;16.50;38.30;;;;;;4966480;28;84106;-71
2023/04/06 11:55:16;;;;;;;4.78;1.90;;;16.50;38.60;;;;;;4963193;28;82700;-71
2023/04/06 11:57:42;;;;;;;7.43;2.40;;;16.40;39.30;;;;;;4963771;28;83739;-70
2023/04/06 12:00:09;;;;;;;4.22;2.33;;;16.20;35.40;;;;;;4962001;28;83479;-71
2023/04/06 12:02:36;;;;;;;4.32;1.75;;;16.20;37.40;;;;;;4968591;28;83226;-71
2023/04/06 12:05:03;;;;;;;5.47;2.45;;;16.30;38.80;;;;;;4961977;28;83751;-71
2023/04/06 12:07:30;;;;;;;4.88;2.45;;;16.40;39.60;;;;;;4968395;28;85158;-71
2023/04/06 12:09:56;;;;;;;5.30;2.28;;;16.40;35.80;;;;;;4965687;28;82735;-72
2023/04/06 12:12:21;;;;;;;5.05;2.20;;;16.20;36.10;;;;;;4963640;28;82741;-71
2023/04/06 12:14:47;;;;;;;5.03;1.90;;;16.00;35.20;;;;;;4964976;28;82598;-72
2023/04/06 12:17:13;;;;;;;7.70;2.50;;;15.90;37.50;;;;;;4967457;28;83991;-72
2023/04/06 12:19:38;;;;;;;4.65;1.70;;;15.80;34.50;;;;;;4967463;28;83108;-71
2023/04/06 12:22:05;;;;;;;4.80;2.40;;;15.70;37.10;;;;;;4967186;28;82403;-71
2023/04/06 12:24:30;;;;;;;5.18;2.47;;;15.70;36.20;;;;;;4966294;28;83985;-71
2023/04/06 12:26:57;;;;;;;5.63;2.47;;;15.60;35.30;;;;;;4965833;28;84061;-71
2023/04/06 12:29:24;;;;;;;5.15;2.33;;;15.40;35.10;;;;;;4974552;28;83221;-70
2023/04/06 12:31:50;;;;;;;6.57;2.88;;;15.50;35.10;;;;;;4969106;28;82132;-71
2023/04/06 12:34:16;;;;;;;5.50;2.40;;;15.60;35.80;;;;;;4971978;28;82791;-71
2023/04/06 12:36:42;;;;;;;5.40;2.80;;;15.70;38.10;;;;;;4976535;28;83829;-70
2023/04/06 12:39:08;;;;;;;5.57;2.72;;;15.60;34.90;;;;;;4974010;28;83416;-71
2023/04/06 12:41:34;;;;;;;7.32;3.15;;;15.60;34.50;;;;;;4974233;28;83787;-71
2023/04/06 12:44:00;;;;;;;6.28;3.50;;;15.50;36.50;;;;;;4973127;28;83638;-71
2023/04/06 12:46:26;;;;;;;6.40;2.60;;;15.50;36.50;;;;;;4970700;28;84582;-71
2023/04/06 12:48:56;;;;;;;6.65;3.38;;;15.70;37.60;;;;;;4969240;28;83527;-69